Terminal Aerodrome Forecast
Issued by NWS

Home | Current Version | Previous Version | Text Only | Print | Product List | Glossary On
Versions: 1 2 3 4 5 6 7 8 9 10 11 12 13 14 15 16 17
000
FTUS46 KPQR 291720
TAFONP
TAF
KONP 291720Z 2918/3018 33005KT P6SM OVC040
     FM292000 33010KT P6SM SCT020 BKN040
     FM292300 35013KT P6SM SCT040
     FM300500 34008KT P6SM BKN025
     FM301000 06004KT P6SM SCT025=

USA.gov is the U.S. government's official web portal to all federal, state and local government web resources and services.